Time;durP1;ratioP1;P1;durP2;ratioP2;P2;SDS_P1;SDS_P2;PMS_P1;PMS_P2;Temp;Humidity;BMP_temperature;BMP_pressure;BME280_temperature;BME280_humidity;BME280_pressure;Samples;Min_cycle;Max_cycle;Signal;HPM_P1;HPM_P2
2022/06/12 00:00:46;;;;;;;;;;;15.20;99.90;;;;;;4996210;28;20042;-79
2022/06/12 00:03:14;;;;;;;6.95;1.92;;;15.10;99.90;;;;;;5012822;28;20301;-80
2022/06/12 00:05:42;;;;;;;6.88;1.98;;;15.00;99.90;;;;;;4996150;28;20099;-81
2022/06/12 00:08:09;;;;;;;7.15;1.70;;;15.00;99.90;;;;;;5012549;28;20104;-80
2022/06/12 00:10:37;;;;;;;7.43;1.88;;;14.90;99.90;;;;;;5012564;28;20486;-80
2022/06/12 00:13:04;;;;;;;9.75;2.45;;;14.90;99.90;;;;;;5012204;28;20121;-80
2022/06/12 00:15:31;;;;;;;10.93;2.58;;;14.90;99.90;;;;;;5011677;28;20050;-79
2022/06/12 00:17:58;;;;;;;7.90;2.10;;;14.80;99.90;;;;;;5011799;28;20046;-80
2022/06/12 00:20:24;;;;;;;6.60;2.00;;;14.70;99.90;;;;;;5016036;28;20509;-80
2022/06/12 00:22:50;;;;;;;6.80;2.20;;;14.70;99.90;;;;;;5012636;28;20101;-80
2022/06/12 00:25:18;;;;;;;9.95;2.28;;;14.60;99.90;;;;;;4995983;28;20051;-80
2022/06/12 00:27:44;;;;;;;8.50;2.28;;;14.60;99.90;;;;;;5011938;28;20038;-80
2022/06/12 00:30:18;;;;;;;8.73;2.00;;;14.50;99.90;;;;;;5012489;28;20466;-79
2022/06/12 00:32:49;;;;;;;10.32;2.85;;;14.40;99.90;;;;;;5012329;28;20073;-79
2022/06/12 00:35:16;;;;;;;8.75;2.17;;;14.30;99.90;;;;;;5012151;28;20041;-80
2022/06/12 00:37:42;;;;;;;10.32;2.30;;;14.20;99.90;;;;;;5011446;28;20529;-80
2022/06/12 00:40:09;;;;;;;6.22;1.85;;;14.20;99.90;;;;;;5012150;28;20030;-80
2022/06/12 00:42:39;;;;;;;9.80;2.35;;;14.10;99.90;;;;;;5011976;28;20080;-80
2022/06/12 00:45:46;;;;;;;7.80;2.08;;;14.10;99.90;;;;;;5011623;28;20137;-80
2022/06/12 00:48:23;;;;;;;8.02;2.63;;;14.00;99.90;;;;;;5011906;28;20046;-80
2022/06/12 00:51:07;;;;;;;5.60;2.15;;;14.00;99.90;;;;;;5011770;28;20050;-81
2022/06/12 00:53:41;;;;;;;9.88;2.53;;;13.90;99.90;;;;;;5011880;28;20074;-79
2022/06/12 00:56:10;;;;;;;8.55;2.80;;;13.90;99.90;;;;;;5011682;28;20395;-80
2022/06/12 00:58:41;;;;;;;4.88;2.03;;;13.90;99.90;;;;;;5011479;28;20046;-80
2022/06/12 01:01:11;;;;;;;10.45;2.67;;;13.80;99.90;;;;;;5011514;28;20042;-80
2022/06/12 01:06:33;;;;;;;7.65;2.30;;;13.80;99.90;;;;;;5011736;28;20038;-80
2022/06/12 01:06:35;;;;;;;7.05;2.25;;;13.80;99.90;;;;;;5011370;28;20080;-80
2022/06/12 01:09:13;;;;;;;7.88;2.13;;;13.80;99.90;;;;;;4995150;28;20149;-80
2022/06/12 01:11:42;;;;;;;6.53;1.98;;;13.80;99.90;;;;;;5011609;28;20479;-80
2022/06/12 01:14:11;;;;;;;6.40;2.20;;;13.80;99.90;;;;;;5011641;28;20508;-80
2022/06/12 01:16:45;;;;;;;7.85;2.00;;;13.80;99.90;;;;;;5011792;28;20050;-80
2022/06/12 01:19:32;;;;;;;7.25;1.67;;;13.80;99.90;;;;;;5011560;28;20120;-80
2022/06/12 01:22:27;;;;;;;8.95;2.03;;;13.80;99.90;;;;;;5011251;28;20072;-80
2022/06/12 01:25:18;;;;;;;13.57;2.50;;;13.80;99.90;;;;;;5011496;28;20100;-80
2022/06/12 01:28:17;;;;;;;6.85;2.17;;;13.80;99.90;;;;;;5017207;28;20475;-79
2022/06/12 01:31:00;;;;;;;8.20;2.35;;;13.80;99.90;;;;;;5001252;28;20050;-79
2022/06/12 01:33:36;;;;;;;7.85;2.42;;;13.70;99.90;;;;;;5017486;28;20105;-80
2022/06/12 01:36:25;;;;;;;4.95;1.98;;;13.70;99.90;;;;;;5017901;28;20518;-80
2022/06/12 01:39:02;;;;;;;7.30;2.30;;;13.70;99.90;;;;;;5001268;28;20120;-80
2022/06/12 01:41:39;;;;;;;11.10;2.45;;;13.60;99.90;;;;;;5017650;28;20072;-80
2022/06/12 01:44:41;;;;;;;7.18;2.25;;;13.60;99.90;;;;;;5017614;28;20057;-80
2022/06/12 01:47:31;;;;;;;7.50;2.17;;;13.50;99.90;;;;;;4997032;28;20065;-81
2022/06/12 01:50:14;;;;;;;8.30;2.33;;;13.60;99.90;;;;;;5017340;28;20104;-80
2022/06/12 01:52:52;;;;;;;6.97;2.45;;;13.50;99.90;;;;;;5017867;28;20488;-80
2022/06/12 01:55:46;;;;;;;6.82;2.22;;;13.50;99.90;;;;;;5017669;28;20041;-80
2022/06/12 01:58:26;;;;;;;8.82;2.80;;;13.50;99.90;;;;;;5011989;28;20054;-80
2022/06/12 02:01:02;;;;;;;6.25;2.72;;;13.40;99.90;;;;;;5017721;28;20510;-80
2022/06/12 02:03:46;;;;;;;10.98;2.63;;;13.30;99.90;;;;;;5017556;28;20045;-81
2022/06/12 02:06:33;;;;;;;7.47;2.50;;;13.30;99.90;;;;;;5017412;28;20180;-81
2022/06/12 02:09:10;;;;;;;10.82;2.75;;;13.20;99.90;;;;;;5017332;28;20037;-80
2022/06/12 02:14:50;;;;;;;10.52;3.22;;;13.20;99.90;;;;;;5017509;28;20053;-81
2022/06/12 02:17:25;;;;;;;10.65;2.75;;;13.20;99.90;;;;;;5017303;28;20111;-80
2022/06/12 02:19:52;;;;;;;11.10;2.97;;;13.10;99.90;;;;;;5017557;28;20444;-80
2022/06/12 02:22:23;;;;;;;7.63;2.97;;;13.00;99.90;;;;;;5017370;28;20081;-80
2022/06/12 02:24:55;;;;;;;8.18;2.30;;;13.00;99.90;;;;;;5017464;28;20471;-79
2022/06/12 02:27:26;;;;;;;6.35;2.50;;;12.90;99.90;;;;;;5017477;28;20405;-80
2022/06/12 02:30:02;;;;;;;6.75;2.80;;;12.90;99.90;;;;;;5000818;28;20049;-80
2022/06/12 02:32:31;;;;;;;8.10;2.40;;;12.90;99.90;;;;;;5017134;28;20096;-81
2022/06/12 02:35:17;;;;;;;11.35;2.58;;;12.90;99.90;;;;;;5017264;28;20053;-79
2022/06/12 02:37:51;;;;;;;8.30;2.80;;;12.90;99.90;;;;;;5015675;28;20080;-79
2022/06/12 02:40:22;;;;;;;8.73;2.50;;;12.90;99.90;;;;;;5014162;28;20139;-80
2022/06/12 02:42:50;;;;;;;8.02;2.63;;;12.90;99.90;;;;;;4997974;28;20497;-80
2022/06/12 02:45:28;;;;;;;6.80;2.40;;;12.90;99.90;;;;;;5014055;28;20069;-80
2022/06/12 02:47:54;;;;;;;9.82;2.88;;;12.90;99.90;;;;;;5013905;28;20041;-81
2022/06/12 02:50:22;;;;;;;;;;;12.90;99.90;;;;;;4998397;28;20034;-80
2022/06/12 02:52:59;;;;;;;;;;;12.90;99.90;;;;;;5014188;28;19937;-80
2022/06/12 02:55:46;;;;;;;7.05;2.83;;;12.90;99.90;;;;;;4997459;28;19917;-80
2022/06/12 02:58:37;;;;;;;11.65;2.78;;;12.90;99.90;;;;;;5013712;28;20073;-80
2022/06/12 03:01:11;;;;;;;10.65;3.08;;;12.80;99.90;;;;;;5013512;28;20042;-80
2022/06/12 03:03:53;;;;;;;10.50;3.00;;;12.90;99.90;;;;;;5014461;28;20496;-80
2022/06/12 03:06:20;;;;;;;11.90;3.22;;;12.80;99.90;;;;;;5013534;28;20038;-80
2022/06/12 03:08:50;;;;;;;10.50;3.17;;;12.80;99.90;;;;;;5013417;28;20471;-80
2022/06/12 03:11:25;;;;;;;11.13;2.90;;;12.80;99.90;;;;;;5013389;28;20114;-80
2022/06/12 03:13:53;;;;;;;7.60;3.00;;;12.90;99.90;;;;;;5013452;28;20046;-80
2022/06/12 03:16:23;;;;;;;10.52;3.35;;;12.80;99.90;;;;;;4997218;28;20078;-80
2022/06/12 03:18:56;;;;;;;9.88;3.17;;;12.80;99.90;;;;;;4996741;28;20057;-79
2022/06/12 03:21:42;;;;;;;7.80;3.28;;;12.80;99.90;;;;;;5013542;28;20137;-80
2022/06/12 03:24:48;;;;;;;9.50;2.97;;;12.80;99.90;;;;;;5013180;28;20182;-80
2022/06/12 03:27:32;;;;;;;8.75;2.60;;;12.60;99.90;;;;;;5013571;28;20046;-79
2022/06/12 03:30:05;;;;;;;7.65;3.05;;;12.60;99.90;;;;;;5012820;28;20042;-80
2022/06/12 03:32:46;;;;;;;9.38;2.80;;;12.60;99.90;;;;;;5013133;28;20054;-79
2022/06/12 03:35:38;;;;;;;8.35;2.80;;;12.50;99.90;;;;;;5013303;28;20402;-80
2022/06/12 03:38:33;;;;;;;7.82;3.00;;;12.50;99.90;;;;;;5013163;28;20041;-80
2022/06/12 03:41:17;;;;;;;9.00;3.08;;;12.50;99.90;;;;;;5015876;28;20049;-80
2022/06/12 03:43:52;;;;;;;12.13;2.80;;;12.40;99.90;;;;;;4996730;28;20046;-80
2022/06/12 03:46:23;;;;;;;7.85;3.13;;;12.50;99.90;;;;;;5012736;28;20053;-79
2022/06/12 03:48:59;;;;;;;7.57;2.92;;;12.50;99.90;;;;;;5012790;28;20046;-80
2022/06/12 03:51:34;;;;;;;6.82;2.80;;;12.50;99.90;;;;;;5012388;28;20037;-80
2022/06/12 03:54:21;;;;;;;11.57;2.97;;;12.50;99.90;;;;;;5013027;28;20074;-80
2022/06/12 03:59:56;;;;;;;8.45;2.60;;;12.40;99.90;;;;;;5012845;28;20041;-80
2022/06/12 04:02:25;;;;;;;7.85;3.08;;;12.40;99.90;;;;;;5013083;28;20046;-80
2022/06/12 04:04:52;;;;;;;7.05;2.80;;;12.40;99.90;;;;;;5012638;28;20065;-80
2022/06/12 04:07:21;;;;;;;10.55;2.97;;;12.40;99.90;;;;;;5012722;28;20042;-80
2022/06/12 04:09:50;;;;;;;6.50;2.90;;;12.40;99.90;;;;;;5012983;28;20052;-80
2022/06/12 04:12:23;;;;;;;8.70;3.00;;;12.40;99.90;;;;;;5012380;28;20056;-80
2022/06/12 04:15:10;;;;;;;5.93;2.20;;;12.50;99.90;;;;;;4996184;28;20560;-80
2022/06/12 04:17:36;;;;;;;8.27;2.30;;;12.50;99.90;;;;;;5012360;28;20046;-80
2022/06/12 04:20:05;;;;;;;7.47;3.15;;;12.50;99.90;;;;;;5012201;28;20625;-80
2022/06/12 04:22:53;;;;;;;7.85;2.60;;;12.50;99.90;;;;;;5012460;28;20069;-79
2022/06/12 04:25:27;;;;;;;6.68;2.45;;;12.50;99.90;;;;;;5012509;28;20050;-80
2022/06/12 04:27:53;;;;;;;9.07;2.38;;;12.50;99.90;;;;;;4995707;28;20045;-80
2022/06/12 04:30:27;;;;;;;7.70;2.95;;;12.60;99.90;;;;;;5012590;28;20046;-80
2022/06/12 04:33:05;;;;;;;8.90;2.55;;;12.60;99.90;;;;;;5011970;28;20045;-80
2022/06/12 04:35:37;;;;;;;7.90;2.90;;;12.70;99.90;;;;;;4995683;28;20418;-80
2022/06/12 04:38:03;;;;;;;8.45;2.83;;;12.70;99.90;;;;;;5011872;28;20052;-80
2022/06/12 04:40:28;;;;;;;9.57;2.80;;;12.80;99.90;;;;;;5011937;28;20414;-80
2022/06/12 04:42:54;;;;;;;6.75;2.40;;;12.90;99.90;;;;;;5011502;28;20303;-80
2022/06/12 04:45:20;;;;;;;9.30;2.42;;;12.90;99.90;;;;;;5012106;28;20463;-80
2022/06/12 04:47:46;;;;;;;7.63;2.60;;;13.00;99.90;;;;;;5011861;28;20038;-80
2022/06/12 04:50:15;;;;;;;7.97;2.45;;;13.00;99.90;;;;;;5011673;28;20129;-80
2022/06/12 04:52:41;;;;;;;7.90;2.50;;;13.00;99.90;;;;;;4995271;28;20045;-80
2022/06/12 04:55:07;;;;;;;10.38;2.63;;;13.10;99.90;;;;;;5011813;28;20100;-80
2022/06/12 04:57:33;;;;;;;7.68;2.47;;;13.10;99.90;;;;;;5011487;28;20138;-80
2022/06/12 04:59:59;;;;;;;8.48;2.42;;;13.10;99.90;;;;;;4994990;28;20132;-80
2022/06/12 05:02:25;;;;;;;7.45;2.95;;;13.20;99.90;;;;;;5011309;28;20096;-80
2022/06/12 05:04:52;;;;;;;8.40;2.38;;;13.20;99.90;;;;;;5011569;28;20049;-81
2022/06/12 05:07:17;;;;;;;8.15;2.78;;;13.30;99.90;;;;;;5011540;28;20533;-81
2022/06/12 05:09:44;;;;;;;6.40;2.08;;;13.30;99.90;;;;;;5011594;28;20038;-80
2022/06/12 05:12:12;;;;;;;;;;;13.40;99.90;;;;;;5011712;28;20088;-80
2022/06/12 05:14:38;;;;;;;8.93;2.42;;;13.40;99.90;;;;;;5011607;28;19917;-81
2022/06/12 05:17:11;;;;;;;7.47;2.40;;;13.40;99.90;;;;;;5011411;28;20060;-80
2022/06/12 05:19:40;;;;;;;10.07;2.67;;;13.60;99.90;;;;;;5011514;28;20050;-81
2022/06/12 05:22:07;;;;;;;10.35;2.50;;;13.60;99.90;;;;;;5010944;28;20053;-80
2022/06/12 05:24:34;;;;;;;10.27;2.80;;;13.70;99.90;;;;;;5011378;28;20046;-80
2022/06/12 05:27:03;;;;;;;11.02;2.60;;;13.80;99.90;;;;;;5011202;28;20044;-80
2022/06/12 05:29:32;;;;;;;9.55;3.15;;;14.00;99.90;;;;;;5011229;28;20512;-81
2022/06/12 05:31:58;;;;;;;12.98;3.15;;;14.10;99.90;;;;;;5010990;28;20037;-80
2022/06/12 05:34:25;;;;;;;9.57;2.78;;;14.30;99.90;;;;;;5011705;28;20119;-80
2022/06/12 05:36:51;;;;;;;12.77;2.70;;;14.50;99.90;;;;;;4995087;28;20060;-80
2022/06/12 05:39:18;;;;;;;9.35;2.83;;;14.60;99.90;;;;;;4994887;28;20045;-81
2022/06/12 05:41:45;;;;;;;6.75;2.70;;;14.70;99.90;;;;;;5011616;28;20522;-81
2022/06/12 05:44:12;;;;;;;9.77;2.90;;;14.90;99.90;;;;;;5010827;28;20096;-80
2022/06/12 05:46:39;;;;;;;16.05;3.20;;;15.10;99.90;;;;;;5011224;28;20434;-80
2022/06/12 05:49:06;;;;;;;12.57;2.83;;;15.30;99.90;;;;;;5010819;28;20046;-80
2022/06/12 05:51:33;;;;;;;12.32;3.35;;;15.40;99.90;;;;;;5011071;28;20045;-80
2022/06/12 05:53:59;;;;;;;16.02;3.85;;;15.60;99.90;;;;;;5011357;28;20069;-81
2022/06/12 05:56:28;;;;;;;14.20;3.63;;;15.70;99.90;;;;;;4994883;28;20042;-80
2022/06/12 05:58:54;;;;;;;12.13;3.65;;;15.90;99.90;;;;;;5010865;28;20061;-80
2022/06/12 06:01:22;;;;;;;19.50;3.45;;;16.00;99.90;;;;;;4994899;28;20383;-80
2022/06/12 06:03:48;;;;;;;13.18;3.30;;;16.20;99.90;;;;;;5011103;28;20048;-80
2022/06/12 06:06:31;;;;;;;13.82;3.30;;;16.60;99.90;;;;;;5011144;28;20034;-80
2022/06/12 06:08:57;;;;;;;13.85;3.47;;;17.10;99.90;;;;;;4994739;28;20099;-81
2022/06/12 06:11:24;;;;;;;13.25;3.53;;;17.50;99.90;;;;;;5010953;28;20037;-81
2022/06/12 06:13:49;;;;;;;11.88;3.30;;;17.80;99.90;;;;;;5012938;28;20038;-80
2022/06/12 06:16:15;;;;;;;17.58;3.60;;;18.10;99.90;;;;;;4998787;28;20049;-80
2022/06/12 06:18:41;;;;;;;14.15;3.10;;;18.30;99.90;;;;;;5020241;28;20045;-81
2022/06/12 06:21:09;;;;;;;13.38;3.30;;;18.50;99.90;;;;;;5014350;28;20037;-81
2022/06/12 06:23:36;;;;;;;15.13;3.55;;;18.70;99.90;;;;;;5014959;28;20498;-81
2022/06/12 06:26:02;;;;;;;13.93;3.67;;;18.80;99.90;;;;;;5014248;28;20088;-80
2022/06/12 06:28:27;;;;;;;11.50;2.92;;;19.10;99.90;;;;;;5014573;28;20071;-80
2022/06/12 06:30:53;;;;;;;13.80;3.88;;;19.30;99.90;;;;;;5014006;28;20510;-81
2022/06/12 06:33:19;;;;;;;12.13;3.35;;;19.50;99.90;;;;;;4998051;28;20092;-81
2022/06/12 06:35:45;;;;;;;16.13;3.65;;;19.70;99.90;;;;;;5014022;28;20486;-80
2022/06/12 06:38:11;;;;;;;9.82;2.92;;;19.90;99.90;;;;;;5013867;28;20038;-80
2022/06/12 06:40:37;;;;;;;17.30;3.60;;;20.00;99.90;;;;;;5016792;28;20045;-80
2022/06/12 06:43:03;;;;;;;11.55;3.05;;;20.10;99.90;;;;;;5014923;28;20046;-80
2022/06/12 06:48:13;;;;;;;17.13;3.58;;;20.30;99.90;;;;;;5014137;28;20042;-81
2022/06/12 06:50:40;;;;;;;13.60;3.03;;;20.40;99.90;;;;;;5014233;28;20132;-80
2022/06/12 06:53:06;;;;;;;11.00;3.40;;;20.50;99.90;;;;;;5013895;28;20451;-80
2022/06/12 06:55:32;;;;;;;;;;;20.60;99.90;;;;;;4997856;28;20053;-80
2022/06/12 06:57:58;;;;;;;13.07;3.53;;;20.70;99.90;;;;;;5013378;28;19927;-80
2022/06/12 07:00:29;;;;;;;14.63;3.50;;;20.80;99.90;;;;;;5014101;28;20042;-80
2022/06/12 07:02:55;;;;;;;14.90;3.67;;;21.00;99.90;;;;;;5013881;28;20532;-81
2022/06/12 07:05:21;;;;;;;13.73;3.38;;;21.00;99.90;;;;;;4997251;28;20085;-80
2022/06/12 07:07:48;;;;;;;16.20;3.30;;;21.10;99.90;;;;;;5013801;28;20125;-80
2022/06/12 07:10:18;;;;;;;12.93;3.00;;;21.30;99.90;;;;;;5013218;28;20125;-80
2022/06/12 07:12:44;;;;;;;13.43;3.10;;;21.40;99.90;;;;;;5014238;28;20529;-81
2022/06/12 07:15:11;;;;;;;13.02;3.08;;;21.50;99.90;;;;;;5013499;28;20046;-81
2022/06/12 07:17:37;;;;;;;16.45;3.75;;;21.60;99.90;;;;;;5013472;28;20116;-80
2022/06/12 07:20:03;;;;;;;;;;;21.60;99.90;;;;;;5014099;28;20474;-80
2022/06/12 07:22:29;;;;;;;13.75;3.17;;;21.80;99.90;;;;;;5013877;28;19960;-81
2022/06/12 07:24:54;;;;;;;10.02;2.60;;;22.00;99.90;;;;;;5012962;28;20041;-81
2022/06/12 07:27:20;;;;;;;;;;;22.00;99.90;;;;;;5013804;28;20042;-81
2022/06/12 07:29:46;;;;;;;10.77;2.97;;;22.10;99.90;;;;;;5013708;28;19983;-81
2022/06/12 07:32:12;;;;;;;;;;;22.30;99.90;;;;;;4997312;28;20111;-81
2022/06/12 07:34:37;;;;;;;11.38;3.08;;;22.30;99.90;;;;;;5013180;28;20312;-82
2022/06/12 07:37:06;;;;;;;12.98;3.10;;;22.50;99.90;;;;;;4996697;28;20049;-81
2022/06/12 07:39:33;;;;;;;13.00;3.03;;;22.40;99.90;;;;;;5013561;28;20049;-82
2022/06/12 07:41:58;;;;;;;12.02;2.80;;;22.70;99.90;;;;;;5014625;28;20049;-83
2022/06/12 07:44:26;;;;;;;;;;;22.90;99.90;;;;;;5015743;28;20458;-83
2022/06/12 07:46:54;;;;;;;12.73;2.75;;;23.00;99.90;;;;;;5012726;28;19964;-82
2022/06/12 07:49:21;;;;;;;10.95;2.67;;;23.20;99.90;;;;;;5012604;28;20112;-83
2022/06/12 07:51:48;;;;;;;10.02;2.53;;;23.30;99.90;;;;;;5013141;28;20500;-83
2022/06/12 07:54:15;;;;;;;14.23;2.60;;;23.20;99.90;;;;;;5012739;28;20090;-84
2022/06/12 07:56:40;;;;;;;11.23;2.78;;;23.30;99.90;;;;;;4996539;28;20402;-84
2022/06/12 07:59:07;;;;;;;;;;;23.40;99.90;;;;;;4997097;28;20058;-82
2022/06/12 08:01:34;;;;;;;11.20;2.30;;;23.60;99.90;;;;;;4996571;28;19917;-83
2022/06/12 08:04:00;;;;;;;7.90;2.25;;;23.60;99.90;;;;;;5012402;28;20482;-83
2022/06/12 08:06:26;;;;;;;;;;;24.00;99.90;;;;;;4996827;28;20041;-83
2022/06/12 08:08:52;;;;;;;9.90;2.08;;;24.00;99.90;;;;;;5012823;28;19944;-83
2022/06/12 08:11:21;;;;;;;11.05;2.80;;;24.10;99.90;;;;;;5017239;28;20034;-83
2022/06/12 08:13:47;;;;;;;9.45;2.08;;;24.20;99.90;;;;;;4995838;28;20069;-83
2022/06/12 08:16:13;;;;;;;9.48;2.10;;;24.40;99.90;;;;;;4978908;28;20538;-85
2022/06/12 08:18:38;;;;;;;6.72;1.95;;;24.70;99.90;;;;;;4992583;28;20054;-82
2022/06/12 08:21:08;;;;;;;10.82;2.95;;;24.30;99.90;;;;;;4993468;28;20166;-85
2022/06/12 08:23:55;;;;;;;9.32;2.80;;;23.80;99.90;;;;;;4976789;28;20042;-83
2022/06/12 08:26:26;;;;;;;;;;;23.70;99.90;;;;;;4992911;28;20043;-86
2022/06/12 08:28:56;;;;;;;9.88;2.50;;;23.70;99.90;;;;;;4981331;28;19922;-82
2022/06/12 08:31:32;;;;;;;13.35;2.25;;;23.80;99.90;;;;;;4992345;28;20042;-83
2022/06/12 08:34:02;;;;;;;9.35;2.55;;;23.90;99.90;;;;;;4976232;28;20422;-83
2022/06/12 08:36:29;;;;;;;10.80;2.25;;;23.90;99.90;;;;;;4996004;28;20573;-84
2022/06/12 08:38:54;;;;;;;12.65;2.53;;;24.00;99.90;;;;;;4992397;28;20046;-84
2022/06/12 08:41:39;;;;;;;;;;;24.00;99.90;;;;;;4983098;28;20098;-84
2022/06/12 08:44:40;;;;;;;10.63;2.40;;;24.10;99.90;;;;;;4995376;28;19917;-85
2022/06/12 08:47:44;;;;;;;9.95;2.20;;;24.20;99.90;;;;;;4989823;28;20137;-85
2022/06/12 08:50:27;;;;;;;9.63;2.13;;;24.10;99.90;;;;;;5011933;28;20060;-84
2022/06/12 08:53:11;;;;;;;11.65;2.13;;;23.80;99.90;;;;;;5011392;28;20045;-85
2022/06/12 08:56:05;;;;;;;7.03;2.03;;;23.50;99.90;;;;;;5016994;28;20046;-85
2022/06/12 08:58:39;;;;;;;11.98;2.88;;;23.20;99.90;;;;;;4994954;28;20742;-84
2022/06/12 09:01:05;;;;;;;11.95;2.45;;;22.90;99.90;;;;;;5011705;28;20112;-84
2022/06/12 09:03:35;;;;;;;;;;;22.70;99.90;;;;;;5017805;28;20046;-83
2022/06/12 09:06:26;;;;;;;12.40;2.92;;;22.50;99.90;;;;;;5011259;28;19929;-83
2022/06/12 09:09:01;;;;;;;14.82;3.13;;;22.30;99.90;;;;;;5011921;28;20713;-83
2022/06/12 09:11:44;;;;;;;10.70;2.70;;;22.30;99.90;;;;;;4995425;28;20375;-84
2022/06/12 09:14:29;;;;;;;12.80;3.10;;;22.40;99.90;;;;;;5012012;28;20494;-85
2022/06/12 09:17:23;;;;;;;9.00;2.13;;;22.60;99.90;;;;;;5011553;28;20162;-84
2022/06/12 09:19:51;;;;;;;11.48;2.60;;;23.20;99.90;;;;;;5011516;28;20121;-88
2022/06/12 09:22:28;;;;;;;11.93;2.40;;;23.60;99.90;;;;;;5012678;28;20486;-92
2022/06/12 09:25:02;;;;;;;11.00;2.80;;;23.90;99.90;;;;;;5012480;28;20042;-89
2022/06/12 09:27:48;;;;;;;8.02;2.10;;;24.10;99.90;;;;;;4999777;28;20044;-89
2022/06/12 09:30:20;;;;;;;7.25;2.05;;;24.00;99.90;;;;;;5008473;28;20052;-90
2022/06/12 09:33:16;;;;;;;6.82;1.80;;;23.70;99.90;;;;;;4998958;28;20030;-89
2022/06/12 09:35:53;;;;;;;7.87;2.53;;;23.40;99.90;;;;;;4997812;28;20041;-89
2022/06/12 09:38:37;;;;;;;7.78;2.20;;;23.40;99.90;;;;;;5010806;28;20276;-90
2022/06/12 09:41:18;;;;;;;8.48;2.28;;;23.50;99.90;;;;;;5011510;28;20042;-88
2022/06/12 09:44:12;;;;;;;8.55;2.10;;;23.80;99.90;;;;;;5008206;28;20046;-89
2022/06/12 09:47:03;;;;;;;8.27;1.73;;;24.20;99.90;;;;;;4993990;28;20042;-88
2022/06/12 09:49:29;;;;;;;7.25;1.75;;;24.40;99.90;;;;;;5000694;28;20065;-89
2022/06/12 09:52:02;;;;;;;;;;;24.60;99.90;;;;;;4998075;28;20065;-86
2022/06/12 09:55:07;;;;;;;8.65;1.65;;;25.00;99.90;;;;;;5013609;28;20362;-90
2022/06/12 09:57:53;;;;;;;7.90;1.70;;;25.10;99.90;;;;;;5012485;28;20050;-88
2022/06/12 10:00:48;;;;;;;7.30;1.40;;;25.30;99.90;;;;;;5016978;28;20136;-90
2022/06/12 10:03:42;;;;;;;6.43;2.17;;;25.60;99.90;;;;;;4996961;28;20077;-93
2022/06/12 10:06:35;;;;;;;7.70;1.35;;;26.00;99.90;;;;;;5011499;28;20038;-90
2022/06/12 10:09:08;;;;;;;5.70;1.08;;;26.00;99.90;;;;;;5012005;28;20061;-89
2022/06/12 10:12:00;;;;;;;4.50;1.42;;;25.90;99.90;;;;;;5013942;28;20041;-84
2022/06/12 10:14:32;;;;;;;4.47;1.30;;;25.60;99.90;;;;;;4992465;28;20038;-88
2022/06/12 10:17:10;;;;;;;4.82;1.25;;;25.80;99.90;;;;;;4996805;28;20050;-88
2022/06/12 10:19:56;;;;;;;6.78;1.15;;;26.10;99.60;;;;;;5013081;28;20045;-87
2022/06/12 10:22:30;;;;;;;4.10;1.08;;;26.20;99.60;;;;;;5011116;28;20050;-84
2022/06/12 10:24:58;;;;;;;4.30;1.05;;;25.80;98.80;;;;;;5011692;28;20045;-85
2022/06/12 10:27:24;;;;;;;4.95;1.00;;;25.40;99.30;;;;;;4980029;28;20038;-85
2022/06/12 10:29:55;;;;;;;3.22;1.10;;;25.20;99.30;;;;;;5012943;28;20121;-84
2022/06/12 10:32:26;;;;;;;3.58;1.20;;;25.30;99.90;;;;;;5013306;28;20414;-84
2022/06/12 10:34:51;;;;;;;4.15;1.00;;;25.30;99.10;;;;;;4996295;28;20048;-84
2022/06/12 10:37:27;;;;;;;4.30;1.02;;;25.30;98.10;;;;;;4980033;28;20034;-84
2022/06/12 10:40:01;;;;;;;3.08;0.90;;;24.80;97.90;;;;;;5012548;28;20042;-84
2022/06/12 10:42:40;;;;;;;3.80;0.95;;;24.70;98.20;;;;;;5010411;28;20434;-85
2022/06/12 10:45:20;;;;;;;3.53;1.00;;;24.80;98.60;;;;;;4995979;28;20525;-84
2022/06/12 10:47:47;;;;;;;6.40;1.05;;;25.30;98.50;;;;;;5012418;28;20034;-85
2022/06/12 10:50:19;;;;;;;4.07;1.17;;;25.60;99.00;;;;;;5012456;28;20037;-85
2022/06/12 10:52:52;;;;;;;4.35;1.15;;;25.80;99.30;;;;;;5012800;28;20091;-85
2022/06/12 10:55:34;;;;;;;4.88;1.30;;;25.00;99.10;;;;;;4996002;28;20044;-85
2022/06/12 10:58:17;;;;;;;5.93;1.20;;;24.70;98.60;;;;;;5011220;28;20108;-85
2022/06/12 11:00:47;;;;;;;3.90;0.93;;;24.80;99.00;;;;;;5011431;28;20045;-85
2022/06/12 11:03:18;;;;;;;6.40;1.17;;;25.30;97.00;;;;;;4996020;28;20038;-85
2022/06/12 11:06:02;;;;;;;3.65;1.13;;;25.70;98.60;;;;;;4996584;28;20046;-85
2022/06/12 11:08:45;;;;;;;4.45;1.15;;;26.10;98.40;;;;;;5001000;28;20490;-86
2022/06/12 11:11:36;;;;;;;6.22;1.17;;;26.40;98.00;;;;;;5009529;28;20478;-84
2022/06/12 11:14:23;;;;;;;3.45;1.30;;;26.10;97.90;;;;;;4999575;28;20085;-90
2022/06/12 11:17:01;;;;;;;5.75;1.20;;;25.70;98.60;;;;;;4994305;28;20034;-90
2022/06/12 11:19:42;;;;;;;3.65;1.15;;;25.60;98.60;;;;;;5008306;28;20038;-86
2022/06/12 11:22:42;;;;;;;4.05;1.10;;;25.50;98.40;;;;;;4993439;28;20041;-88
2022/06/12 11:25:35;;;;;;;5.03;1.40;;;25.90;98.30;;;;;;5010388;28;20046;-88
2022/06/12 11:28:32;;;;;;;5.40;1.35;;;26.20;97.80;;;;;;5008990;28;20050;-88
2022/06/12 11:31:23;;;;;;;4.07;0.93;;;26.40;97.40;;;;;;5010811;28;20042;-80
2022/06/12 11:34:07;;;;;;;3.75;1.08;;;26.60;96.90;;;;;;4995380;28;20068;-83
2022/06/12 11:36:46;;;;;;;5.32;1.42;;;26.50;97.80;;;;;;5009885;28;20556;-83
2022/06/12 11:39:46;;;;;;;4.55;1.10;;;26.30;98.00;;;;;;5009539;28;20132;-83
2022/06/12 11:42:44;;;;;;;5.88;1.35;;;26.00;98.10;;;;;;5010606;28;20120;-86
2022/06/12 11:45:40;;;;;;;5.47;1.20;;;26.00;97.50;;;;;;4995748;28;20505;-88
2022/06/12 11:48:21;;;;;;;4.20;1.20;;;26.20;97.90;;;;;;4994401;28;20057;-89
2022/06/12 11:50:59;;;;;;;5.45;1.30;;;26.50;98.30;;;;;;5011568;28;20029;-89
2022/06/12 11:54:02;;;;;;;4.25;1.10;;;26.60;96.10;;;;;;5011832;28;20042;-85
2022/06/12 11:56:38;;;;;;;4.00;0.90;;;26.70;96.50;;;;;;5010939;28;20099;-90
2022/06/12 11:59:13;;;;;;;4.03;1.10;;;26.50;96.30;;;;;;5011177;28;20504;-90
2022/06/12 12:02:13;;;;;;;3.53;0.90;;;26.70;96.20;;;;;;4995596;28;20486;-89
2022/06/12 12:04:48;;;;;;;5.75;1.55;;;26.40;96.20;;;;;;4993260;28;20034;-86
2022/06/12 12:07:33;;;;;;;5.90;1.30;;;26.50;96.30;;;;;;5010988;28;20038;-84
2022/06/12 12:10:17;;;;;;;4.53;1.02;;;26.50;95.70;;;;;;5008129;28;20044;-83
2022/06/12 12:12:48;;;;;;;3.95;1.08;;;26.70;95.70;;;;;;4994117;28;20069;-86
2022/06/12 12:15:23;;;;;;;3.08;0.90;;;26.90;94.60;;;;;;5010198;28;20045;-83
2022/06/12 12:17:52;;;;;;;5.40;0.98;;;27.30;95.10;;;;;;5011146;28;20120;-86
2022/06/12 12:20:45;;;;;;;5.68;1.23;;;27.10;95.50;;;;;;5010253;28;20096;-86
2022/06/12 12:23:16;;;;;;;6.60;1.13;;;27.00;95.90;;;;;;5009353;28;20117;-86
2022/06/12 12:25:48;;;;;;;7.00;1.30;;;26.90;95.80;;;;;;5010816;28;20076;-85
2022/06/12 12:28:29;;;;;;;5.13;1.13;;;27.10;95.90;;;;;;4994034;28;20044;-86
2022/06/12 12:31:04;;;;;;;4.60;1.42;;;27.00;95.70;;;;;;5010492;28;20043;-85
2022/06/12 12:33:32;;;;;;;4.28;1.13;;;26.90;95.70;;;;;;5010675;28;20034;-84
2022/06/12 12:41:51;;;;;;;3.72;1.10;;;26.40;94.50;;;;;;5010863;28;20309;-85
2022/06/12 12:44:38;;;;;;;3.72;1.05;;;26.30;95.40;;;;;;5009851;28;20049;-86
2022/06/12 12:47:28;;;;;;;4.72;1.00;;;26.70;95.50;;;;;;5008091;28;20057;-86
2022/06/12 12:50:16;;;;;;;6.70;1.00;;;26.70;95.40;;;;;;4977461;28;20045;-86
2022/06/12 12:53:02;;;;;;;2.88;0.90;;;26.70;95.20;;;;;;5007808;28;20042;-85
2022/06/12 12:55:39;;;;;;;6.70;1.42;;;26.40;94.50;;;;;;5009995;28;20042;-86
2022/06/12 12:58:20;;;;;;;5.95;1.48;;;26.70;94.60;;;;;;4993232;28;20112;-85
2022/06/12 13:00:46;;;;;;;2.83;1.00;;;26.90;95.10;;;;;;4999582;28;20045;-86
2022/06/12 13:03:23;;;;;;;4.07;0.70;;;26.50;94.20;;;;;;4983210;28;20054;-85
2022/06/12 13:05:48;;;;;;;4.80;0.95;;;26.10;93.40;;;;;;5007364;28;20041;-86
2022/06/12 13:08:47;;;;;;;4.05;1.10;;;26.00;94.10;;;;;;5008133;28;20045;-86
2022/06/12 13:11:26;;;;;;;5.53;1.10;;;25.90;94.30;;;;;;4996768;28;20045;-86
2022/06/12 13:14:04;;;;;;;4.07;0.90;;;25.70;94.20;;;;;;5007831;28;20052;-85
2022/06/12 13:16:39;;;;;;;2.40;0.82;;;26.00;94.00;;;;;;4992215;28;20042;-86
2022/06/12 13:19:13;;;;;;;4.22;1.20;;;26.30;93.60;;;;;;5007051;28;20034;-85
2022/06/12 13:22:10;;;;;;;4.57;1.05;;;25.70;95.00;;;;;;4993418;28;20172;-84
2022/06/12 13:25:01;;;;;;;7.38;1.48;;;25.80;96.00;;;;;;5010452;28;20498;-86
2022/06/12 13:27:34;;;;;;;4.25;1.00;;;25.70;95.70;;;;;;5004997;28;20056;-87
2022/06/12 13:30:01;;;;;;;4.00;0.82;;;25.90;95.00;;;;;;5008063;28;20076;-88
2022/06/12 13:32:32;;;;;;;4.65;1.10;;;26.00;94.10;;;;;;4991789;28;20426;-86
2022/06/12 13:35:16;;;;;;;3.72;1.17;;;26.10;94.40;;;;;;5008694;28;20037;-86
2022/06/12 13:37:45;;;;;;;3.72;1.02;;;26.40;94.60;;;;;;5008388;28;20041;-90
2022/06/12 13:40:31;;;;;;;4.50;1.10;;;26.50;94.40;;;;;;4994051;28;20089;-86
2022/06/12 13:43:18;;;;;;;2.72;1.00;;;27.00;94.70;;;;;;4994512;28;20502;-90